createdAt,value
2018-05-09T00:02:24.174Z,981.29
2018-05-09T00:03:04.177Z,981.27
2018-05-09T00:04:25.676Z,981.27
2018-05-09T00:05:03.677Z,981.24
2018-05-09T00:06:03.679Z,981.27
2018-05-09T00:07:24.676Z,981.26
2018-05-09T00:08:06.173Z,981.29
2018-05-09T00:09:04.176Z,981.30
2018-05-09T00:10:04.180Z,981.30
2018-05-09T00:11:04.176Z,981.29
2018-05-09T00:12:04.748Z,981.32
2018-05-09T00:13:04.676Z,981.34
2018-05-09T00:14:04.676Z,981.32
2018-05-09T00:15:25.162Z,981.29
2018-05-09T00:16:05.176Z,981.31
2018-05-09T00:17:05.175Z,981.32
2018-05-09T00:18:05.181Z,981.33
2018-05-09T00:19:11.176Z,981.32
2018-05-09T00:20:05.675Z,981.33
2018-05-09T00:21:04.917Z,981.30
2018-05-09T00:22:05.675Z,981.35
2018-05-09T00:23:05.675Z,981.34
2018-05-09T00:24:06.179Z,981.37
2018-05-09T00:25:06.179Z,981.35
2018-05-09T00:26:06.177Z,981.32
2018-05-09T00:27:06.175Z,981.32
2018-05-09T00:28:08.675Z,981.33
2018-05-09T00:29:27.683Z,981.32
2018-05-09T00:30:07.607Z,981.32
2018-05-09T00:31:08.675Z,981.33
2018-05-09T00:32:06.304Z,981.27
2018-05-09T00:33:07.186Z,981.28
2018-05-09T00:34:07.178Z,981.26
2018-05-09T00:35:07.179Z,981.28
2018-05-09T00:36:07.628Z,981.24
2018-05-09T00:37:09.675Z,981.24
2018-05-09T00:38:07.677Z,981.25
2018-05-09T00:39:07.683Z,981.22
2018-05-09T00:40:07.674Z,981.24
2018-05-09T00:41:08.175Z,981.21
2018-05-09T00:42:22.182Z,981.24
2018-05-09T00:43:08.174Z,981.20
2018-05-09T00:44:08.218Z,981.21
2018-05-09T00:45:08.677Z,981.24
2018-05-09T00:46:08.674Z,981.20
2018-05-09T00:48:40.053Z,981.22
2018-05-09T00:49:40.091Z,981.19
2018-05-09T00:50:40.089Z,981.19
2018-05-09T00:51:39.686Z,981.19
2018-05-09T00:52:39.785Z,981.20
2018-05-09T00:53:41.563Z,981.15
2018-05-09T00:54:40.566Z,981.16
2018-05-09T00:55:42.012Z,981.16
2018-05-09T00:56:41.060Z,981.13
2018-05-09T00:57:40.282Z,981.19
2018-05-09T00:58:41.055Z,981.20
2018-05-09T00:59:40.555Z,981.20
2018-05-09T01:02:12.813Z,981.18
2018-05-09T01:03:13.744Z,981.16
2018-05-09T01:04:12.817Z,981.22
2018-05-09T01:06:43.858Z,981.30
2018-05-09T01:07:44.582Z,981.23
2018-05-09T01:08:44.589Z,981.22
2018-05-09T01:09:45.084Z,981.17
2018-05-09T01:11:05.299Z,981.16
2018-05-09T01:11:45.086Z,981.17
2018-05-09T01:12:45.091Z,981.16
2018-05-09T01:15:37.842Z,981.20
2018-05-09T01:16:16.860Z,981.16
2018-05-09T01:17:16.849Z,981.16
2018-05-09T01:18:17.349Z,981.18
2018-05-09T01:19:17.354Z,981.13
2018-05-09T01:20:17.349Z,981.15
2018-05-09T01:21:17.347Z,981.15
2018-05-09T01:22:18.847Z,981.15
2018-05-09T01:23:17.070Z,981.12
2018-05-09T01:24:17.852Z,981.11
2018-05-09T01:25:17.850Z,981.17
2018-05-09T01:26:41.345Z,981.15
2018-05-09T01:27:45.349Z,981.14
2018-05-09T01:28:18.348Z,981.13
2018-05-09T01:29:18.346Z,981.15
2018-05-09T01:31:50.097Z,981.16
2018-05-09T01:32:50.104Z,981.09
2018-05-09T01:33:50.604Z,981.06
2018-05-09T01:34:50.610Z,981.07
2018-05-09T01:35:50.604Z,981.05
2018-05-09T01:36:50.604Z,981.04
2018-05-09T01:37:51.108Z,981.04
2018-05-09T01:38:51.104Z,981.02
2018-05-09T01:39:51.103Z,981.01
2018-05-09T01:40:51.104Z,981.01
2018-05-09T01:41:50.701Z,980.98
2018-05-09T01:42:51.604Z,980.95
2018-05-09T01:43:51.612Z,980.95
2018-05-09T01:44:51.608Z,980.93
2018-05-09T01:45:58.104Z,980.94
2018-05-09T01:46:51.327Z,980.95
2018-05-09T01:47:52.058Z,980.94
2018-05-09T01:48:52.114Z,980.97
2018-05-09T01:49:52.104Z,980.96
2018-05-09T01:50:54.603Z,980.95
2018-05-09T01:51:52.606Z,980.95
2018-05-09T01:52:51.951Z,980.95
2018-05-09T01:53:52.604Z,981.00
2018-05-09T01:54:52.223Z,981.03
2018-05-09T01:55:53.103Z,981.00
2018-05-09T01:56:54.073Z,981.04
2018-05-09T01:57:53.103Z,981.01
2018-05-09T02:01:56.324Z,981.03
2018-05-09T02:02:56.330Z,981.04
2018-05-09T02:03:55.807Z,980.98
2018-05-09T02:04:56.832Z,981.01
2018-05-09T02:06:17.831Z,980.98
2018-05-09T02:06:56.847Z,980.96
2018-05-09T02:07:56.830Z,980.95
2018-05-09T02:09:18.334Z,980.98
2018-05-09T02:09:57.331Z,980.99
2018-05-09T02:11:18.333Z,980.96
2018-05-09T02:11:57.326Z,980.95
2018-05-09T02:13:18.837Z,980.94
2018-05-09T02:13:57.832Z,980.89
2018-05-09T02:15:19.763Z,980.91
2018-05-09T02:15:57.836Z,980.90
2018-05-09T02:16:58.331Z,980.89
2018-05-09T02:18:19.338Z,980.88
2018-05-09T02:19:12.360Z,980.84
2018-05-09T02:19:58.330Z,980.86
2018-05-09T02:20:57.928Z,980.84
2018-05-09T02:22:21.836Z,980.89
2018-05-09T02:22:58.837Z,980.90
2018-05-09T02:23:58.883Z,980.90
2018-05-09T02:24:59.332Z,980.91
2018-05-09T02:25:59.341Z,980.90
2018-05-09T02:27:21.831Z,980.89
2018-05-09T02:27:59.349Z,980.92
2018-05-09T02:29:00.808Z,980.95
2018-05-09T02:29:59.831Z,980.93
2018-05-09T02:30:59.834Z,980.89
2018-05-09T02:31:59.836Z,980.95
2018-05-09T02:33:21.336Z,980.94
2018-05-09T02:34:00.331Z,980.90
2018-05-09T02:35:00.331Z,980.90
2018-05-09T02:36:00.336Z,980.91
2018-05-09T02:37:06.827Z,980.90
2018-05-09T02:38:00.830Z,980.86
2018-05-09T02:39:06.839Z,980.90
2018-05-09T02:40:00.828Z,980.90
2018-05-09T02:41:22.332Z,980.92
2018-05-09T02:43:32.778Z,980.91
2018-05-09T02:44:32.714Z,980.91
2018-05-09T02:45:32.716Z,980.88
2018-05-09T02:46:33.216Z,980.87
2018-05-09T02:47:36.215Z,980.87
2018-05-09T02:48:33.225Z,980.82
2018-05-09T02:49:33.220Z,980.79
2018-05-09T02:50:54.716Z,980.84
2018-05-09T02:51:54.718Z,980.82
2018-05-09T02:52:40.714Z,980.79
2018-05-09T02:53:34.715Z,980.81
2018-05-09T02:54:33.329Z,980.78
2018-05-09T02:55:34.217Z,980.79
2018-05-09T02:56:34.215Z,980.77
2018-05-09T02:57:34.217Z,980.78
2018-05-09T02:58:55.761Z,980.81
2018-05-09T02:59:34.713Z,980.78
2018-05-09T03:00:39.702Z,980.75
2018-05-09T03:01:34.714Z,980.79
2018-05-09T03:02:55.716Z,980.83
2018-05-09T03:03:35.215Z,980.80
2018-05-09T03:04:56.215Z,980.84
2018-05-09T03:05:35.215Z,980.83
2018-05-09T03:06:35.215Z,980.84
2018-05-09T03:09:06.253Z,980.83
2018-05-09T03:10:06.972Z,980.84
2018-05-09T03:11:06.978Z,980.82
2018-05-09T03:12:07.471Z,980.79
2018-05-09T03:13:13.471Z,980.83
2018-05-09T03:14:07.508Z,980.83
2018-05-09T03:15:07.471Z,980.78
2018-05-09T03:16:29.904Z,980.81
2018-05-09T03:17:07.975Z,980.80
2018-05-09T03:18:07.968Z,980.79
2018-05-09T03:19:07.971Z,980.78
2018-05-09T03:20:08.470Z,980.73
2018-05-09T03:21:07.705Z,980.73
2018-05-09T03:22:08.475Z,980.71
2018-05-09T03:23:29.480Z,980.73
2018-05-09T03:24:08.970Z,980.72
2018-05-09T03:25:14.971Z,980.74
2018-05-09T03:26:09.028Z,980.71
2018-05-09T03:27:08.970Z,980.73
2018-05-09T03:28:08.974Z,980.73
2018-05-09T03:29:09.474Z,980.70
2018-05-09T03:31:40.138Z,980.77
2018-05-09T03:32:40.257Z,980.73
2018-05-09T03:33:40.857Z,980.75
2018-05-09T03:34:40.454Z,980.75
2018-05-09T03:35:41.357Z,980.72
2018-05-09T03:36:41.355Z,980.70
2018-05-09T03:37:41.361Z,980.68
2018-05-09T03:38:41.856Z,980.67
2018-05-09T03:39:41.080Z,980.68
2018-05-09T03:40:41.858Z,980.63
2018-05-09T03:41:41.328Z,980.66
2018-05-09T03:44:40.612Z,980.64
2018-05-09T03:45:14.611Z,980.65
2018-05-09T03:46:13.616Z,980.66
2018-05-09T03:48:45.366Z,980.63
2018-05-09T03:49:46.305Z,980.65
2018-05-09T03:50:44.840Z,980.62
2018-05-09T03:51:47.872Z,980.65
2018-05-09T03:52:51.873Z,980.70
2018-05-09T03:53:45.869Z,980.69
2018-05-09T03:54:45.876Z,980.73
2018-05-09T03:55:46.375Z,980.74
2018-05-09T03:56:46.374Z,980.72
2018-05-09T03:57:46.374Z,980.76
2018-05-09T03:58:46.379Z,980.75
2018-05-09T03:59:46.875Z,980.78
2018-05-09T04:02:07.872Z,980.79
2018-05-09T04:02:46.872Z,980.77
2018-05-09T04:04:08.375Z,980.75
2018-05-09T04:04:47.373Z,980.75
2018-05-09T04:05:47.373Z,980.77
2018-05-09T04:06:47.373Z,980.77
2018-05-09T04:07:48.881Z,980.77
2018-05-09T04:08:47.872Z,980.78
2018-05-09T04:09:47.873Z,980.78
2018-05-09T04:10:49.873Z,980.75
2018-05-09T04:13:35.587Z,980.79
2018-05-09T04:14:19.654Z,980.78
2018-05-09T04:16:51.405Z,980.85
2018-05-09T04:17:52.845Z,980.85
2018-05-09T04:18:51.411Z,980.87
2018-05-09T04:19:51.027Z,980.87
2018-05-09T04:20:51.924Z,980.86
2018-05-09T04:21:51.909Z,980.86
2018-05-09T04:22:51.913Z,980.82
2018-05-09T04:23:52.412Z,980.86
2018-05-09T04:24:52.504Z,980.85
2018-05-09T04:25:51.757Z,980.85
2018-05-09T04:26:52.423Z,980.82
2018-05-09T04:27:51.897Z,980.80
2018-05-09T04:30:26.109Z,980.86
2018-05-09T04:31:45.183Z,980.85
2018-05-09T04:32:25.174Z,980.84
2018-05-09T04:33:26.676Z,980.86
2018-05-09T04:34:45.677Z,980.83
2018-05-09T04:35:24.917Z,980.89
2018-05-09T04:36:46.673Z,980.85
2018-05-09T04:37:46.195Z,980.87
2018-05-09T04:38:27.176Z,980.83
2018-05-09T04:39:25.176Z,980.81
2018-05-09T04:40:26.114Z,980.82
2018-05-09T04:41:46.676Z,980.83
2018-05-09T04:42:46.676Z,980.83
2018-05-09T04:43:25.676Z,980.85
2018-05-09T04:44:27.151Z,980.89
2018-05-09T04:45:28.183Z,980.90
2018-05-09T04:46:26.181Z,980.94
2018-05-09T04:47:25.531Z,980.93
2018-05-09T04:48:26.176Z,980.90
2018-05-09T04:49:26.683Z,980.93
2018-05-09T04:50:27.106Z,980.93
2018-05-09T04:51:26.674Z,980.89
2018-05-09T04:52:26.674Z,980.96
2018-05-09T04:53:41.182Z,980.93
2018-05-09T04:54:27.173Z,980.89
2018-05-09T04:55:27.299Z,980.90
2018-05-09T04:56:27.176Z,980.90
2018-05-09T04:57:52.176Z,980.91
2018-05-09T04:58:26.900Z,980.91
2018-05-09T04:59:27.674Z,980.90
2018-05-09T05:00:27.675Z,980.90
2018-05-09T05:01:30.175Z,980.89
2018-05-09T05:02:29.604Z,980.88
2018-05-09T05:03:28.173Z,980.84
2018-05-09T05:04:28.210Z,980.89
2018-05-09T05:05:28.672Z,980.87
2018-05-09T05:08:21.422Z,980.81
2018-05-09T05:09:22.427Z,980.79
2018-05-09T05:10:01.426Z,980.79
2018-05-09T05:11:00.436Z,980.77
2018-05-09T05:12:21.928Z,980.74
2018-05-09T05:13:00.935Z,980.72
2018-05-09T05:15:34.111Z,980.71
2018-05-09T05:16:35.551Z,980.74
2018-05-09T05:17:34.118Z,980.72
2018-05-09T05:18:48.636Z,980.69
2018-05-09T05:19:34.618Z,980.69
2018-05-09T05:20:55.618Z,980.72
2018-05-09T05:21:34.618Z,980.69
2018-05-09T05:22:57.051Z,980.71
2018-05-09T05:23:35.133Z,980.71
2018-05-09T05:24:36.079Z,980.70
2018-05-09T05:25:36.593Z,980.72
2018-05-09T05:26:49.611Z,980.70
2018-05-09T05:27:35.618Z,980.74
2018-05-09T05:28:35.618Z,980.75
2018-05-09T05:29:35.618Z,980.74
2018-05-09T05:30:36.120Z,980.78
2018-05-09T05:31:36.122Z,980.81
2018-05-09T05:32:35.490Z,980.81
2018-05-09T05:33:36.121Z,980.81
2018-05-09T05:34:58.585Z,980.81
2018-05-09T05:35:36.626Z,980.82
2018-05-09T05:36:36.618Z,980.82
2018-05-09T05:37:57.618Z,980.80
2018-05-09T05:38:45.582Z,980.83
2018-05-09T05:39:58.124Z,980.91
2018-05-09T05:40:37.114Z,980.90
2018-05-09T05:41:58.113Z,980.94
2018-05-09T05:42:51.628Z,980.90
2018-05-09T05:43:37.618Z,980.93
2018-05-09T05:44:37.617Z,980.92
2018-05-09T05:45:37.624Z,980.92
2018-05-09T05:48:10.378Z,980.97
2018-05-09T05:49:15.429Z,980.97
2018-05-09T05:50:30.422Z,980.98
2018-05-09T05:51:09.423Z,981.03
2018-05-09T05:52:09.923Z,981.04
2018-05-09T05:54:40.568Z,981.09
2018-05-09T05:55:41.321Z,981.11
2018-05-09T05:57:02.321Z,981.12
2018-05-09T05:59:14.556Z,981.05
2018-05-09T06:02:05.934Z,981.02
2018-05-09T06:02:50.952Z,980.97
2018-05-09T06:03:45.884Z,980.95
2018-05-09T06:04:45.444Z,980.93
2018-05-09T06:05:45.445Z,980.97
2018-05-09T06:06:44.667Z,980.99
2018-05-09T06:07:51.443Z,980.92
2018-05-09T06:08:45.436Z,980.95
2018-05-09T06:09:45.937Z,980.96
2018-05-09T06:10:45.161Z,980.97
2018-05-09T06:11:45.946Z,980.99
2018-05-09T06:12:45.942Z,980.98
2018-05-09T06:13:46.437Z,980.98
2018-05-09T06:14:47.435Z,980.96
2018-05-09T06:15:46.439Z,981.00
2018-05-09T06:16:46.447Z,980.95
2018-05-09T06:19:18.201Z,980.90
2018-05-09T06:20:41.209Z,980.85
2018-05-09T06:21:17.692Z,980.86
2018-05-09T06:24:11.009Z,980.90
2018-05-09T06:24:56.038Z,980.92
2018-05-09T06:25:49.954Z,980.93
2018-05-09T06:27:12.461Z,980.94
2018-05-09T06:27:50.477Z,980.97
2018-05-09T06:29:11.462Z,980.96
2018-05-09T06:29:51.886Z,980.95
2018-05-09T06:31:04.976Z,980.92
2018-05-09T06:31:50.179Z,980.95
2018-05-09T06:34:29.882Z,980.96
2018-05-09T06:35:22.451Z,980.99
2018-05-09T06:36:22.451Z,980.97
2018-05-09T06:37:24.942Z,980.96
2018-05-09T06:38:28.943Z,981.01
2018-05-09T06:40:55.909Z,981.03
2018-05-09T06:41:54.456Z,981.07
2018-05-09T06:43:14.922Z,981.06
2018-05-09T06:45:47.179Z,981.03
2018-05-09T06:46:47.186Z,981.04
2018-05-09T06:47:25.672Z,981.07
2018-05-09T06:48:32.688Z,981.02
2018-05-09T06:49:26.686Z,981.04
2018-05-09T06:50:32.692Z,981.03
2018-05-09T06:51:30.119Z,981.06
2018-05-09T06:52:41.190Z,981.01
2018-05-09T06:53:27.189Z,980.98
2018-05-09T06:54:47.561Z,981.00
2018-05-09T06:55:48.192Z,981.03
2018-05-09T06:56:50.687Z,981.00
2018-05-09T06:57:31.618Z,980.98
2018-05-09T06:58:27.005Z,981.03
2018-05-09T06:59:27.687Z,981.05
2018-05-09T07:00:34.688Z,981.04
2018-05-09T07:01:42.215Z,981.05
2018-05-09T07:02:28.188Z,981.05
2018-05-09T07:03:28.187Z,981.11
2018-05-09T07:04:28.188Z,981.07
2018-05-09T07:06:59.946Z,981.06
2018-05-09T07:08:01.416Z,981.07
2018-05-09T07:08:59.631Z,981.06
2018-05-09T07:09:59.630Z,981.06
2018-05-09T07:11:02.442Z,981.07
2018-05-09T07:12:00.456Z,981.09
2018-05-09T07:13:00.446Z,981.08
2018-05-09T07:15:55.231Z,981.03
2018-05-09T07:18:27.682Z,980.99
2018-05-09T07:19:07.224Z,981.00
2018-05-09T07:20:06.682Z,980.99
2018-05-09T07:22:35.502Z,981.01
2018-05-09T07:23:34.854Z,981.00
2018-05-09T07:24:35.514Z,980.98
2018-05-09T07:25:36.018Z,980.97
2018-05-09T07:26:36.009Z,980.95
2018-05-09T07:27:35.361Z,980.97
2018-05-09T07:28:36.010Z,980.97
2018-05-09T07:29:36.510Z,981.02
2018-05-09T07:30:36.515Z,981.01
2018-05-09T07:31:36.542Z,981.00
2018-05-09T07:32:35.981Z,980.93
2018-05-09T07:34:00.940Z,980.97
2018-05-09T07:34:37.032Z,980.96
2018-05-09T07:35:58.010Z,980.90
2018-05-09T07:36:37.015Z,980.92
2018-05-09T07:37:36.484Z,980.81
2018-05-09T07:38:36.587Z,980.81
2018-05-09T07:39:36.699Z,980.82
2018-05-09T07:40:57.810Z,980.77
2018-05-09T07:41:36.914Z,980.81
2018-05-09T07:42:40.009Z,980.76
2018-05-09T07:43:37.112Z,980.77
2018-05-09T07:44:38.013Z,980.79
2018-05-09T07:45:39.008Z,980.78
2018-05-09T07:46:38.012Z,980.80
2018-05-09T07:47:38.652Z,980.76
2018-05-09T07:48:40.509Z,980.74
2018-05-09T07:49:38.511Z,980.73
2018-05-09T07:50:38.535Z,980.72
2018-05-09T07:51:39.011Z,980.73
2018-05-09T07:53:00.052Z,980.72
2018-05-09T07:53:39.009Z,980.67
2018-05-09T07:54:39.009Z,980.67
2018-05-09T07:55:39.523Z,980.68
2018-05-09T07:58:16.913Z,980.68
2018-05-09T07:59:10.272Z,980.74
2018-05-09T08:00:12.919Z,980.69
2018-05-09T08:01:17.421Z,980.73
2018-05-09T08:02:32.420Z,980.65
2018-05-09T08:03:13.427Z,980.69
2018-05-09T08:04:11.421Z,980.69
2018-05-09T08:06:43.196Z,980.69
2018-05-09T08:07:43.201Z,980.65
2018-05-09T08:08:43.195Z,980.66
2018-05-09T08:09:57.701Z,980.68
2018-05-09T08:10:57.714Z,980.66
2018-05-09T08:12:04.701Z,980.66
2018-05-09T08:12:58.276Z,980.62
2018-05-09T08:13:43.311Z,980.64
2018-05-09T08:14:46.201Z,980.67
2018-05-09T08:15:44.206Z,980.66
2018-05-09T08:16:43.684Z,980.67
2018-05-09T08:17:44.702Z,980.67
2018-05-09T08:18:44.703Z,980.67
2018-05-09T08:19:44.705Z,980.67
2018-05-09T08:20:44.704Z,980.63
2018-05-09T08:21:44.334Z,980.70
2018-05-09T08:22:45.203Z,980.68
2018-05-09T08:23:45.216Z,980.63
2018-05-09T08:24:46.174Z,980.70
2018-05-09T08:25:47.713Z,980.71
2018-05-09T08:26:44.930Z,980.69
2018-05-09T08:27:45.710Z,980.70
2018-05-09T08:28:45.705Z,980.71
2018-05-09T08:29:45.314Z,980.73
2018-05-09T08:30:45.436Z,980.68
2018-05-09T08:31:48.202Z,980.72
2018-05-09T08:32:46.202Z,980.72
2018-05-09T08:33:45.810Z,980.70
2018-05-09T08:34:46.714Z,980.67
2018-05-09T08:35:46.706Z,980.70
2018-05-09T08:36:46.807Z,980.72
2018-05-09T08:37:47.204Z,980.70
2018-05-09T08:38:47.204Z,980.71
2018-05-09T08:39:47.205Z,980.72
2018-05-09T08:40:46.689Z,980.70
2018-05-09T08:41:47.704Z,980.68
2018-05-09T08:42:46.951Z,980.66
2018-05-09T08:43:49.189Z,980.67
2018-05-09T08:44:47.155Z,980.66
2018-05-09T08:45:48.234Z,980.68
2018-05-09T08:46:47.353Z,980.72
2018-05-09T08:47:47.449Z,980.72
2018-05-09T08:48:48.204Z,980.68
2018-05-09T08:49:48.198Z,980.72
2018-05-09T08:50:59.135Z,980.69
2018-05-09T08:51:47.964Z,980.66
2018-05-09T08:52:48.704Z,980.62
2018-05-09T08:54:09.199Z,980.62
2018-05-09T08:54:53.141Z,980.62
2018-05-09T08:55:55.201Z,980.57
2018-05-09T08:56:49.215Z,980.56
2018-05-09T08:57:48.691Z,980.57
2018-05-09T08:58:49.708Z,980.53
2018-05-09T09:01:27.098Z,980.58
2018-05-09T09:02:35.103Z,980.57
2018-05-09T09:03:21.103Z,980.59
2018-05-09T09:04:23.687Z,980.56
2018-05-09T09:05:25.534Z,980.53
2018-05-09T09:09:24.293Z,980.58
2018-05-09T09:10:45.414Z,980.50
2018-05-09T09:11:25.041Z,980.49
2018-05-09T09:12:25.528Z,980.53
2018-05-09T09:13:25.523Z,980.52
2018-05-09T09:14:46.523Z,980.53
2018-05-09T09:15:25.555Z,980.52
2018-05-09T09:16:25.136Z,980.54
2018-05-09T09:17:25.233Z,980.55
2018-05-09T09:18:46.454Z,980.57
2018-05-09T09:19:25.430Z,980.55
2018-05-09T09:20:46.588Z,980.53
2018-05-09T09:21:26.527Z,980.50
2018-05-09T09:22:26.525Z,980.52
2018-05-09T09:23:26.532Z,980.55
2018-05-09T09:24:27.523Z,980.47
2018-05-09T09:25:27.492Z,980.50
2018-05-09T09:26:50.025Z,980.56
2018-05-09T09:27:26.996Z,980.46
2018-05-09T09:28:27.031Z,980.45
2018-05-09T09:29:33.524Z,980.53
2018-05-09T09:31:58.957Z,980.55
2018-05-09T09:32:58.965Z,980.51
2018-05-09T09:34:05.467Z,980.52
2018-05-09T09:36:30.151Z,980.54
2018-05-09T09:38:30.345Z,980.53
2018-05-09T09:39:33.840Z,980.41
2018-05-09T09:40:30.570Z,980.42
2018-05-09T09:41:53.887Z,980.41
2018-05-09T09:42:31.553Z,980.47
2018-05-09T09:43:52.371Z,980.38
2018-05-09T09:46:05.154Z,980.34
2018-05-09T09:47:04.615Z,980.33
2018-05-09T09:48:17.152Z,980.30
2018-05-09T09:49:02.757Z,980.31
2018-05-09T09:50:02.858Z,980.30
2018-05-09T09:51:03.652Z,980.20
2018-05-09T09:52:31.150Z,980.22
2018-05-09T09:53:03.257Z,980.22
2018-05-09T09:55:34.826Z,980.23
2018-05-09T09:56:34.926Z,980.21
2018-05-09T09:57:35.056Z,980.19
2018-05-09T09:58:38.062Z,980.19
2018-05-09T09:59:36.043Z,980.18
2018-05-09T10:00:42.983Z,980.16
2018-05-09T10:01:36.131Z,980.13
2018-05-09T10:02:35.686Z,980.12
2018-05-09T10:03:38.543Z,980.14
2018-05-09T10:04:56.883Z,980.12
2018-05-09T10:05:36.002Z,980.21
2018-05-09T10:06:43.053Z,980.12
2018-05-09T10:09:10.690Z,980.13
2018-05-09T10:10:10.250Z,980.08
2018-05-09T10:11:10.251Z,980.09
2018-05-09T10:13:42.531Z,980.07
2018-05-09T10:16:14.076Z,980.02
2018-05-09T10:17:14.074Z,980.06
2018-05-09T10:18:14.082Z,980.05
2018-05-09T10:19:14.565Z,980.03
2018-05-09T10:20:20.560Z,980.00
2018-05-09T10:21:41.565Z,980.02
2018-05-09T10:22:35.565Z,980.04
2018-05-09T10:23:21.136Z,980.01
2018-05-09T10:24:17.068Z,980.00
2018-05-09T10:25:29.093Z,979.99
2018-05-09T10:26:29.566Z,979.99
2018-05-09T10:27:35.657Z,979.97
2018-05-09T10:28:14.764Z,980.04
2018-05-09T10:29:14.889Z,980.05
2018-05-09T10:31:47.191Z,980.05
2018-05-09T10:32:46.557Z,980.02
2018-05-09T10:33:53.338Z,980.02
2018-05-09T10:35:01.708Z,979.98
2018-05-09T10:36:01.699Z,980.00
2018-05-09T10:36:47.700Z,979.96
2018-05-09T10:37:49.701Z,979.98
2018-05-09T10:39:15.197Z,979.97
2018-05-09T10:39:47.486Z,980.00
2018-05-09T10:40:50.200Z,980.02
2018-05-09T10:41:49.204Z,979.97
2018-05-09T10:47:46.914Z,979.95
2018-05-09T10:49:05.158Z,979.90
2018-05-09T10:49:45.007Z,979.91
2018-05-09T10:50:45.017Z,979.89
2018-05-09T10:52:05.518Z,979.95
2018-05-09T10:52:51.430Z,979.93
2018-05-09T10:53:44.796Z,979.94
2018-05-09T10:54:45.429Z,979.92
2018-05-09T10:56:06.937Z,979.95
2018-05-09T10:56:45.933Z,979.92
2018-05-09T10:57:45.277Z,979.93
2018-05-09T10:58:45.935Z,979.97
2018-05-09T10:59:52.429Z,979.89
2018-05-09T11:00:46.432Z,979.91
2018-05-09T11:01:46.435Z,979.86
2018-05-09T11:02:52.436Z,979.88
2018-05-09T11:08:34.551Z,979.84
2018-05-09T11:12:15.992Z,979.82
2018-05-09T11:14:48.472Z,979.75
2018-05-09T11:15:47.511Z,979.78
2018-05-09T11:17:15.015Z,979.72
2018-05-09T11:17:51.546Z,979.75
2018-05-09T11:18:48.013Z,979.74
2018-05-09T11:19:48.053Z,979.71
2018-05-09T11:20:50.518Z,979.72
2018-05-09T11:21:47.752Z,979.75
2018-05-09T11:22:48.510Z,979.76
2018-05-09T11:24:04.943Z,979.81
2018-05-09T11:24:55.942Z,979.84
2018-05-09T11:25:48.246Z,979.86
2018-05-09T11:26:51.015Z,979.80
2018-05-09T11:29:20.663Z,979.89
2018-05-09T11:34:55.130Z,980.02
2018-05-09T11:36:00.072Z,980.00
2018-05-09T11:36:55.140Z,980.00
2018-05-09T11:37:57.673Z,979.97
2018-05-09T11:38:55.646Z,979.56
2018-05-09T11:39:54.999Z,979.52
2018-05-09T11:40:58.144Z,979.56
2018-05-09T11:41:56.140Z,979.91
2018-05-09T11:44:33.540Z,980.57
2018-05-09T11:45:26.902Z,980.65
2018-05-09T11:46:33.547Z,980.65
2018-05-09T11:47:30.049Z,980.70
2018-05-09T11:48:34.047Z,980.68
2018-05-09T11:49:28.046Z,980.66
2018-05-09T11:50:27.533Z,980.71
2018-05-09T11:51:35.484Z,980.73
2018-05-09T11:52:28.550Z,980.80
2018-05-09T11:53:28.551Z,980.78
2018-05-09T11:54:49.552Z,980.78
2018-05-09T11:55:28.547Z,980.75
2018-05-09T11:56:29.048Z,980.82
2018-05-09T11:57:28.307Z,979.68
2018-05-09T11:58:28.417Z,980.82
2018-05-09T11:59:50.048Z,980.74
2018-05-09T12:00:38.480Z,979.40
2018-05-09T12:01:43.548Z,980.25
2018-05-09T12:02:29.550Z,979.58
2018-05-09T12:03:32.048Z,980.64
2018-05-09T12:04:29.171Z,979.93
2018-05-09T12:05:51.053Z,980.16
2018-05-09T12:06:51.049Z,980.08
2018-05-09T12:07:50.524Z,979.65
2018-05-09T12:08:51.555Z,980.03
2018-05-09T12:09:32.560Z,980.06
2018-05-09T12:10:51.681Z,979.98
2018-05-09T12:11:30.563Z,979.54
2018-05-09T12:17:42.407Z,979.98
2018-05-09T12:18:49.076Z,980.03
2018-05-09T12:20:06.577Z,979.97
2018-05-09T12:20:43.574Z,980.06
2018-05-09T12:21:43.589Z,980.03
2018-05-09T12:22:59.562Z,979.90
2018-05-09T12:23:46.072Z,980.02
2018-05-09T12:26:15.066Z,979.89
2018-05-09T12:27:16.009Z,979.93
2018-05-09T12:28:16.014Z,979.91
2018-05-09T12:29:16.008Z,979.64
2018-05-09T12:30:16.509Z,979.32
2018-05-09T12:31:36.607Z,979.16
2018-05-09T12:32:37.507Z,979.20
2018-05-09T12:33:16.509Z,979.19
2018-05-09T12:34:15.990Z,979.22
2018-05-09T12:35:16.131Z,979.71
2018-05-09T12:36:16.225Z,979.31
2018-05-09T12:37:18.483Z,979.80
2018-05-09T12:38:17.007Z,979.75
2018-05-09T12:39:19.508Z,979.75
2018-05-09T12:40:17.508Z,979.74
2018-05-09T12:41:17.507Z,979.77
2018-05-09T12:42:16.996Z,979.68
2018-05-09T12:43:18.014Z,979.62
2018-05-09T12:44:41.010Z,979.65
2018-05-09T12:45:18.006Z,979.66
2018-05-09T12:47:49.005Z,979.66
2018-05-09T12:48:49.811Z,979.64
2018-05-09T12:49:49.707Z,979.62
2018-05-09T12:50:52.215Z,979.62
2018-05-09T12:51:50.213Z,979.59
2018-05-09T12:52:52.206Z,979.53
2018-05-09T12:53:50.206Z,979.49
2018-05-09T12:55:17.708Z,979.47
2018-05-09T12:55:49.947Z,979.46
2018-05-09T12:56:50.707Z,979.44
2018-05-09T12:57:51.207Z,978.96
2018-05-09T12:58:51.206Z,979.00
2018-05-09T12:59:51.204Z,978.95
2018-05-09T13:01:05.212Z,978.94
2018-05-09T13:01:53.206Z,979.11
2018-05-09T13:02:51.706Z,978.97
2018-05-09T13:03:51.711Z,979.11
2018-05-09T13:04:53.735Z,979.36
2018-05-09T13:05:58.209Z,979.23
2018-05-09T13:06:52.208Z,979.33
2018-05-09T13:07:51.447Z,979.32
2018-05-09T13:10:25.198Z,979.16
2018-05-09T13:11:23.766Z,979.00
2018-05-09T13:12:23.769Z,978.85
2018-05-09T13:13:26.266Z,979.24
2018-05-09T13:14:38.271Z,979.23
2018-05-09T13:16:55.805Z,979.15
2018-05-09T13:17:55.815Z,978.76
2018-05-09T13:18:55.813Z,978.75
2018-05-09T13:19:58.312Z,978.72
2018-05-09T13:20:56.312Z,978.72
2018-05-09T13:22:17.317Z,978.71
2018-05-09T13:22:57.244Z,978.73
2018-05-09T13:23:55.923Z,978.69
2018-05-09T13:24:56.821Z,978.70
2018-05-09T13:26:17.810Z,978.72
2018-05-09T13:26:56.812Z,979.13
2018-05-09T13:27:56.425Z,978.67
2018-05-09T13:28:57.313Z,978.60
2018-05-09T13:29:57.320Z,978.58
2018-05-09T13:31:17.819Z,979.00
2018-05-09T13:31:57.812Z,978.64
2018-05-09T13:32:59.821Z,978.93
2018-05-09T13:33:57.812Z,978.58
2018-05-09T13:34:57.298Z,978.66
2018-05-09T13:35:58.312Z,978.96
2018-05-09T13:36:57.547Z,978.99
2018-05-09T13:37:58.315Z,978.99
2018-05-09T13:39:00.745Z,978.99
2018-05-09T13:40:19.897Z,978.96
2018-05-09T13:41:00.818Z,978.95
2018-05-09T13:42:19.816Z,978.93
2018-05-09T13:42:58.812Z,978.96
2018-05-09T13:45:29.930Z,978.99
2018-05-09T13:46:32.533Z,978.95
2018-05-09T13:47:52.114Z,978.93
2018-05-09T13:48:32.568Z,978.97
2018-05-09T13:49:37.101Z,978.75
2018-05-09T13:50:30.589Z,978.59
2018-05-09T13:51:45.642Z,978.95
2018-05-09T13:52:37.602Z,978.84
2018-05-09T13:53:53.621Z,978.69
2018-05-09T13:56:05.253Z,978.90
2018-05-09T13:57:05.268Z,978.89
2018-05-09T13:58:30.266Z,978.90
2018-05-09T13:59:03.759Z,978.90
2018-05-09T14:00:24.763Z,978.84
2018-05-09T14:01:24.105Z,978.81
2018-05-09T14:02:24.803Z,978.50
2018-05-09T14:03:25.267Z,978.81
2018-05-09T14:05:35.570Z,978.80
2018-05-09T14:06:35.580Z,978.76
2018-05-09T14:07:35.578Z,978.82
2018-05-09T14:08:36.076Z,978.76
2018-05-09T14:09:35.338Z,978.82
2018-05-09T14:10:36.081Z,978.77
2018-05-09T14:11:36.079Z,978.74
2018-05-09T14:12:35.690Z,978.79
2018-05-09T14:13:35.798Z,978.76
2018-05-09T14:14:36.573Z,978.66
2018-05-09T14:15:36.177Z,978.38
2018-05-09T14:16:58.104Z,978.36